createdAt,value
2017-03-18T00:00:02.895Z,9
2017-03-18T00:05:02.875Z,7
2017-03-18T00:10:02.929Z,10
2017-03-18T00:15:02.965Z,9
2017-03-18T00:20:02.986Z,8
2017-03-18T00:25:03.014Z,10
2017-03-18T00:30:02.975Z,9
2017-03-18T00:35:03.093Z,8
2017-03-18T00:40:03.152Z,9
2017-03-18T00:45:03.150Z,11
2017-03-18T00:50:03.146Z,11
2017-03-18T00:55:03.262Z,16
2017-03-18T01:00:03.187Z,11
2017-03-18T01:05:03.301Z,13
2017-03-18T01:10:03.326Z,17
2017-03-18T01:15:03.351Z,5
2017-03-18T01:20:03.361Z,6
2017-03-18T01:25:03.382Z,9
2017-03-18T01:30:03.443Z,9
2017-03-18T01:35:03.427Z,9
2017-03-18T01:40:03.543Z,8
2017-03-18T01:45:03.542Z,6
2017-03-18T01:50:03.557Z,10
2017-03-18T01:55:03.560Z,7
2017-03-18T02:00:02.554Z,7
2017-03-18T02:05:02.585Z,10
2017-03-18T02:10:02.674Z,6
2017-03-18T02:15:02.650Z,10
2017-03-18T02:20:02.707Z,5
2017-03-18T02:25:02.700Z,9
2017-03-18T02:30:02.751Z,9
2017-03-18T02:35:02.777Z,11
2017-03-18T02:40:02.871Z,9
2017-03-18T02:45:02.908Z,6
2017-03-18T02:50:02.918Z,6
2017-03-18T02:55:02.926Z,10
2017-03-18T03:00:02.999Z,7
2017-03-18T03:05:03.017Z,9
2017-03-18T03:10:03.097Z,6
2017-03-18T03:15:03.058Z,7
2017-03-18T03:20:03.111Z,7
2017-03-18T03:25:03.135Z,11
2017-03-18T03:30:03.168Z,8
2017-03-18T03:35:03.217Z,7
2017-03-18T03:40:03.319Z,7
2017-03-18T03:45:03.286Z,6
2017-03-18T03:50:03.254Z,8
2017-03-18T03:55:03.349Z,6
2017-03-18T04:00:03.385Z,7
2017-03-18T04:05:03.404Z,9
2017-03-18T04:10:03.495Z,9
2017-03-18T04:15:03.426Z,7
2017-03-18T04:20:03.492Z,14
2017-03-18T04:25:03.528Z,9
2017-03-18T04:30:03.574Z,9
2017-03-18T04:35:03.537Z,9
2017-03-18T04:40:02.606Z,9
2017-03-18T04:45:02.580Z,10
2017-03-18T04:50:02.618Z,10
2017-03-18T04:55:02.683Z,8
2017-03-18T05:00:02.983Z,6
2017-03-18T05:05:03.014Z,8
2017-03-18T05:10:03.085Z,8
2017-03-18T05:15:03.077Z,6
2017-03-18T05:20:03.409Z,9
2017-03-18T05:25:03.490Z,9
2017-03-18T05:30:03.582Z,10
2017-03-18T05:35:03.573Z,10
2017-03-18T05:40:02.655Z,12
2017-03-18T05:45:02.771Z,8
2017-03-18T05:50:02.828Z,8
2017-03-18T05:55:02.854Z,9
2017-03-18T06:00:02.855Z,6
2017-03-18T06:05:02.919Z,7
2017-03-18T06:10:02.987Z,6
2017-03-18T06:15:02.932Z,8
2017-03-18T06:20:03.041Z,8
2017-03-18T06:25:03.064Z,11
2017-03-18T06:30:03.076Z,7
2017-03-18T06:35:03.109Z,13
2017-03-18T06:40:03.247Z,10
2017-03-18T06:45:03.313Z,9
2017-03-18T06:50:03.357Z,9
2017-03-18T06:55:03.360Z,8
2017-03-18T07:00:03.397Z,8
2017-03-18T07:05:03.391Z,8
2017-03-18T07:10:03.500Z,6
2017-03-18T07:15:02.572Z,10
2017-03-18T07:20:02.579Z,6
2017-03-18T07:25:02.574Z,7
2017-03-18T07:30:02.680Z,7
2017-03-18T07:35:02.709Z,7
2017-03-18T07:40:03.403Z,8
2017-03-18T07:45:03.734Z,5
2017-03-18T07:50:03.515Z,5
2017-03-18T07:55:03.285Z,10
2017-03-18T08:00:03.106Z,4
2017-03-18T08:05:02.827Z,5
2017-03-18T08:10:03.592Z,6
2017-03-18T08:15:03.274Z,6
2017-03-18T08:20:02.950Z,7
2017-03-18T08:25:02.573Z,7
2017-03-18T08:30:03.461Z,7
2017-03-18T08:35:03.122Z,6
2017-03-18T08:40:02.704Z,9
2017-03-18T08:45:03.342Z,7
2017-03-18T08:50:03.121Z,4
2017-03-18T08:55:02.809Z,9
2017-03-18T09:00:02.679Z,6
2017-03-18T09:05:03.319Z,9
2017-03-18T09:10:02.947Z,6
2017-03-18T09:15:02.685Z,6
2017-03-18T09:20:03.410Z,8
2017-03-18T09:25:03.198Z,8
2017-03-18T09:30:02.827Z,4
2017-03-18T09:35:03.587Z,5
2017-03-18T09:40:03.372Z,3
2017-03-18T09:45:03.109Z,4
2017-03-18T09:50:02.743Z,4
2017-03-18T09:55:03.423Z,5
2017-03-18T10:00:03.112Z,7
2017-03-18T10:05:02.807Z,9
2017-03-18T10:10:03.594Z,6
2017-03-18T10:15:03.168Z,5
2017-03-18T10:20:02.844Z,6
2017-03-18T10:25:02.661Z,7
2017-03-18T10:30:02.639Z,3
2017-03-18T10:35:03.365Z,4
2017-03-18T10:40:03.286Z,7
2017-03-18T10:45:02.995Z,6
2017-03-18T10:50:02.642Z,5
2017-03-18T10:55:02.767Z,8
2017-03-18T11:00:03.607Z,6
2017-03-18T11:05:03.279Z,6
2017-03-18T11:10:02.981Z,5
2017-03-18T11:15:02.676Z,6
2017-03-18T11:20:03.422Z,4
2017-03-18T11:25:03.099Z,5
2017-03-18T11:30:03.022Z,7
2017-03-18T11:35:02.786Z,5
2017-03-18T11:40:03.595Z,6
2017-03-18T11:45:03.340Z,11
2017-03-18T11:50:03.046Z,4
2017-03-18T11:55:03.110Z,5
2017-03-18T12:00:03.172Z,3
2017-03-18T12:05:02.951Z,3
2017-03-18T12:10:03.410Z,2
2017-03-18T12:15:02.657Z,3
2017-03-18T12:20:03.118Z,4
2017-03-18T12:25:03.025Z,2
2017-03-18T12:30:02.837Z,3
2017-03-18T12:35:03.020Z,3
2017-03-18T12:40:02.975Z,5
2017-03-18T12:45:02.798Z,3
2017-03-18T12:50:02.945Z,3
2017-03-18T12:55:02.966Z,4
2017-03-18T13:00:03.040Z,2
2017-03-18T13:05:02.846Z,3
2017-03-18T13:10:02.711Z,2
2017-03-18T13:15:03.367Z,3
2017-03-18T13:20:03.120Z,3
2017-03-18T13:25:02.921Z,2
2017-03-18T13:30:02.676Z,4
2017-03-18T13:35:03.245Z,3
2017-03-18T13:40:02.934Z,5
2017-03-18T13:45:02.685Z,5
2017-03-18T13:50:03.299Z,2
2017-03-18T13:55:02.947Z,1
2017-03-18T14:00:02.709Z,3
2017-03-18T14:05:03.374Z,3
2017-03-18T14:10:02.696Z,3
2017-03-18T14:15:03.528Z,3
2017-03-18T14:20:02.628Z,2
2017-03-18T14:25:03.378Z,2
2017-03-18T14:30:03.526Z,2
2017-03-18T14:35:03.099Z,3
2017-03-18T14:40:03.432Z,2
2017-03-18T14:45:03.107Z,3
2017-03-18T14:50:02.706Z,2
2017-03-18T14:55:03.136Z,3
2017-03-18T15:00:03.176Z,2
2017-03-18T15:05:02.954Z,5
2017-03-18T15:10:03.183Z,4
2017-03-18T15:15:03.196Z,2
2017-03-18T15:20:03.285Z,4
2017-03-18T15:25:02.713Z,3
2017-03-18T15:30:03.167Z,2
2017-03-18T15:35:02.624Z,3
2017-03-18T15:40:03.048Z,3
2017-03-18T15:45:03.544Z,2
2017-03-18T15:50:02.610Z,2
2017-03-18T15:55:02.713Z,2
2017-03-18T16:00:03.316Z,2
2017-03-18T16:05:03.202Z,2
2017-03-18T16:10:03.581Z,4
2017-03-18T16:15:02.625Z,2
2017-03-18T16:20:02.750Z,0
2017-03-18T16:25:02.937Z,1
2017-03-18T16:30:02.836Z,2
2017-03-18T16:35:03.582Z,3
2017-03-18T16:40:03.336Z,0
2017-03-18T16:45:02.973Z,0
2017-03-18T16:50:02.757Z,0
2017-03-18T16:55:03.561Z,0
2017-03-18T17:00:03.176Z,0
2017-03-18T17:05:02.785Z,0
2017-03-18T17:10:03.522Z,0
2017-03-18T17:15:03.168Z,0
2017-03-18T17:20:02.882Z,0
2017-03-18T17:25:03.507Z,0
2017-03-18T17:30:03.161Z,0
2017-03-18T17:35:02.815Z,0
2017-03-18T17:40:03.482Z,1
2017-03-18T17:45:03.165Z,0
2017-03-18T17:50:02.890Z,0
2017-03-18T17:55:02.648Z,0
2017-03-18T18:00:03.398Z,1
2017-03-18T18:05:03.114Z,0
2017-03-18T18:10:02.782Z,0
2017-03-18T18:15:03.424Z,0
2017-03-18T18:20:03.134Z,0
2017-03-18T18:25:02.799Z,1
2017-03-18T18:30:03.354Z,0
2017-03-18T18:35:03.080Z,0
2017-03-18T18:40:02.749Z,0
2017-03-18T18:45:03.345Z,0
2017-03-18T18:50:02.902Z,0
2017-03-18T18:55:02.600Z,0
2017-03-18T19:00:03.347Z,0
2017-03-18T19:05:03.076Z,0
2017-03-18T19:10:02.717Z,0
2017-03-18T19:15:03.373Z,0
2017-03-18T19:20:02.968Z,0
2017-03-18T19:25:03.557Z,0
2017-03-18T19:30:03.296Z,0
2017-03-18T19:35:03.014Z,0
2017-03-18T19:40:02.669Z,0
2017-03-18T19:45:03.432Z,0
2017-03-18T19:50:03.033Z,0
2017-03-18T19:55:02.749Z,0
2017-03-18T20:00:03.534Z,0
2017-03-18T20:05:03.291Z,2
2017-03-18T20:10:02.955Z,0
2017-03-18T20:15:02.789Z,0
2017-03-18T20:20:03.439Z,0
2017-03-18T20:25:03.105Z,0
2017-03-18T20:30:02.703Z,0
2017-03-18T20:35:03.477Z,0
2017-03-18T20:40:03.181Z,0
2017-03-18T20:45:02.886Z,1
2017-03-18T20:50:02.675Z,0
2017-03-18T20:55:03.272Z,0
2017-03-18T21:00:02.970Z,0
2017-03-18T21:05:02.739Z,3
2017-03-18T21:10:03.518Z,2
2017-03-18T21:15:03.295Z,2
2017-03-18T21:20:03.022Z,3
2017-03-18T21:25:02.741Z,4
2017-03-18T21:30:03.554Z,4
2017-03-18T21:35:03.261Z,1
2017-03-18T21:40:03.054Z,2
2017-03-18T21:45:02.808Z,0
2017-03-18T21:50:03.472Z,0
2017-03-18T21:55:03.256Z,0
2017-03-18T22:00:03.152Z,0
2017-03-18T22:05:02.957Z,0
2017-03-18T22:10:02.740Z,0
2017-03-18T22:15:03.503Z,0
2017-03-18T22:20:03.238Z,0
2017-03-18T22:25:03.021Z,0
2017-03-18T22:30:02.691Z,0
2017-03-18T22:35:03.461Z,0
2017-03-18T22:40:03.250Z,0
2017-03-18T22:45:02.934Z,0
2017-03-18T22:50:02.650Z,0
2017-03-18T22:55:03.393Z,0
2017-03-18T23:00:03.118Z,0
2017-03-18T23:05:02.837Z,0
2017-03-18T23:10:03.477Z,0
2017-03-18T23:15:03.271Z,0
2017-03-18T23:20:02.877Z,0
2017-03-18T23:25:03.606Z,0
2017-03-18T23:30:03.235Z,0
2017-03-18T23:35:03.009Z,0
2017-03-18T23:40:02.745Z,0
2017-03-18T23:45:03.346Z,0
2017-03-18T23:50:03.143Z,0
2017-03-18T23:55:02.767Z,0
